createdAt,value
2019-02-16T00:00:37.207Z,865.37
2019-02-16T00:01:37.075Z,865.37
2019-02-16T00:02:36.947Z,865.35
2019-02-16T00:03:36.811Z,865.38
2019-02-16T00:04:36.681Z,865.33
2019-02-16T00:05:36.548Z,865.33
2019-02-16T00:06:36.420Z,865.37
2019-02-16T00:07:36.285Z,865.40
2019-02-16T00:08:36.155Z,865.37
2019-02-16T00:09:36.021Z,865.38
2019-02-16T00:10:35.898Z,865.39
2019-02-16T00:11:35.763Z,865.38
2019-02-16T00:12:35.627Z,865.38
2019-02-16T00:13:35.494Z,865.37
2019-02-16T00:14:35.429Z,865.42
2019-02-16T00:15:35.231Z,865.41
2019-02-16T00:16:35.101Z,865.42
2019-02-16T00:17:34.970Z,865.44
2019-02-16T00:18:34.842Z,865.47
2019-02-16T00:19:34.713Z,865.48
2019-02-16T00:20:34.575Z,865.44
2019-02-16T00:21:34.441Z,865.45
2019-02-16T00:22:34.321Z,865.44
2019-02-16T00:23:34.179Z,865.43
2019-02-16T00:24:34.049Z,865.45
2019-02-16T00:25:33.917Z,865.48
2019-02-16T00:26:33.785Z,865.44
2019-02-16T00:27:33.658Z,865.47
2019-02-16T00:28:33.523Z,865.47
2019-02-16T00:29:33.391Z,865.47
2019-02-16T00:30:33.265Z,865.44
2019-02-16T00:31:33.127Z,865.47
2019-02-16T00:32:32.995Z,865.44
2019-02-16T00:33:32.869Z,865.46
2019-02-16T00:34:32.733Z,865.43
2019-02-16T00:35:32.598Z,865.45
2019-02-16T00:36:32.474Z,865.47
2019-02-16T00:37:32.336Z,865.44
2019-02-16T00:38:32.204Z,865.48
2019-02-16T00:39:32.077Z,865.48
2019-02-16T00:40:31.943Z,865.46
2019-02-16T00:41:31.809Z,865.49
2019-02-16T00:42:31.679Z,865.46
2019-02-16T00:43:31.546Z,865.42
2019-02-16T00:44:31.413Z,865.43
2019-02-16T00:45:31.280Z,865.45
2019-02-16T00:46:31.150Z,865.44
2019-02-16T00:47:31.018Z,865.41
2019-02-16T00:48:30.885Z,865.41
2019-02-16T00:49:30.754Z,865.40
2019-02-16T00:50:30.622Z,865.39
2019-02-16T00:51:30.489Z,865.41
2019-02-16T00:52:30.357Z,865.43
2019-02-16T00:53:30.226Z,865.40
2019-02-16T00:54:30.098Z,865.40
2019-02-16T00:55:29.962Z,865.42
2019-02-16T00:56:29.831Z,865.41
2019-02-16T00:57:29.701Z,865.42
2019-02-16T00:58:29.566Z,865.41
2019-02-16T00:59:29.437Z,865.37
2019-02-16T01:00:29.303Z,865.40
2019-02-16T01:01:29.170Z,865.40
2019-02-16T01:02:29.038Z,865.38
2019-02-16T01:03:28.912Z,865.36
2019-02-16T01:04:28.774Z,865.39
2019-02-16T01:05:28.647Z,865.39
2019-02-16T01:06:28.512Z,865.35
2019-02-16T01:07:28.378Z,865.34
2019-02-16T01:08:28.248Z,865.36
2019-02-16T01:09:28.115Z,865.35
2019-02-16T01:10:27.987Z,865.34
2019-02-16T01:11:27.853Z,865.32
2019-02-16T01:12:27.722Z,865.33
2019-02-16T01:13:27.590Z,865.29
2019-02-16T01:14:27.456Z,865.31
2019-02-16T01:15:27.324Z,865.27
2019-02-16T01:16:27.193Z,865.30
2019-02-16T01:17:27.059Z,865.28
2019-02-16T01:18:26.929Z,865.24
2019-02-16T01:19:26.800Z,865.25
2019-02-16T01:20:26.664Z,865.24
2019-02-16T01:21:26.532Z,865.21
2019-02-16T01:22:26.400Z,865.24
2019-02-16T01:23:26.266Z,865.26
2019-02-16T01:24:26.135Z,865.25
2019-02-16T01:25:26.003Z,865.23
2019-02-16T01:26:25.877Z,865.21
2019-02-16T01:27:25.740Z,865.25
2019-02-16T01:28:25.611Z,865.27
2019-02-16T01:29:25.476Z,865.19
2019-02-16T01:30:25.349Z,865.21
2019-02-16T01:31:25.210Z,865.23
2019-02-16T01:32:25.084Z,865.22
2019-02-16T01:33:24.950Z,865.20
2019-02-16T01:34:24.821Z,865.21
2019-02-16T01:35:24.682Z,865.18
2019-02-16T01:36:24.550Z,865.22
2019-02-16T01:37:24.418Z,865.20
2019-02-16T01:38:24.286Z,865.20
2019-02-16T01:39:24.157Z,865.25
2019-02-16T01:40:24.023Z,865.19
2019-02-16T01:41:23.893Z,865.17
2019-02-16T01:42:23.765Z,865.16
2019-02-16T01:43:23.631Z,865.14
2019-02-16T01:44:23.495Z,865.15
2019-02-16T01:45:23.363Z,865.16
2019-02-16T01:46:23.231Z,865.14
2019-02-16T01:47:23.107Z,865.13
2019-02-16T01:48:22.965Z,865.13
2019-02-16T01:49:22.838Z,865.15
2019-02-16T01:50:22.704Z,865.08
2019-02-16T01:51:31.450Z,865.12
2019-02-16T01:52:22.441Z,865.13
2019-02-16T01:53:22.324Z,865.10
2019-02-16T01:54:22.176Z,865.11
2019-02-16T01:55:22.043Z,865.10
2019-02-16T01:56:21.910Z,865.11
2019-02-16T01:57:21.777Z,865.10
2019-02-16T01:58:21.648Z,865.07
2019-02-16T01:59:21.514Z,865.06
2019-02-16T02:00:21.381Z,865.09
2019-02-16T02:01:21.250Z,865.09
2019-02-16T02:02:21.118Z,865.09
2019-02-16T02:03:20.985Z,865.08
2019-02-16T02:04:20.854Z,865.10
2019-02-16T02:05:20.722Z,865.10
2019-02-16T02:06:20.589Z,865.13
2019-02-16T02:07:20.456Z,865.10
2019-02-16T02:08:20.326Z,865.08
2019-02-16T02:09:20.192Z,865.08
2019-02-16T02:10:20.061Z,865.07
2019-02-16T02:11:19.928Z,865.09
2019-02-16T02:12:19.797Z,865.10
2019-02-16T02:13:19.667Z,865.06
2019-02-16T02:14:19.532Z,865.04
2019-02-16T02:15:19.403Z,865.05
2019-02-16T02:16:19.268Z,865.09
2019-02-16T02:17:19.139Z,865.06
2019-02-16T02:18:19.005Z,865.07
2019-02-16T02:19:18.872Z,865.05
2019-02-16T02:20:18.738Z,865.06
2019-02-16T02:21:18.607Z,865.10
2019-02-16T02:22:18.481Z,865.08
2019-02-16T02:23:18.343Z,865.10
2019-02-16T02:24:18.211Z,865.11
2019-02-16T02:25:18.082Z,865.09
2019-02-16T02:26:17.953Z,865.09
2019-02-16T02:27:17.822Z,865.06
2019-02-16T02:28:17.683Z,865.05
2019-02-16T02:29:17.552Z,865.05
2019-02-16T02:30:17.494Z,865.07
2019-02-16T02:31:17.291Z,865.02
2019-02-16T02:32:17.157Z,865.06
2019-02-16T02:33:17.027Z,865.02
2019-02-16T02:34:16.892Z,864.99
2019-02-16T02:35:16.761Z,865.05
2019-02-16T02:36:16.629Z,865.02
2019-02-16T02:37:16.498Z,865.00
2019-02-16T02:38:16.366Z,865.02
2019-02-16T02:39:16.231Z,865.02
2019-02-16T02:40:16.100Z,865.01
2019-02-16T02:41:15.968Z,865.01
2019-02-16T02:42:15.835Z,865.01
2019-02-16T02:43:15.704Z,865.00
2019-02-16T02:44:15.578Z,865.00
2019-02-16T02:45:15.438Z,865.01
2019-02-16T02:46:15.306Z,864.92
2019-02-16T02:47:15.174Z,864.95
2019-02-16T02:48:15.041Z,864.94
2019-02-16T02:49:14.908Z,864.93
2019-02-16T02:50:14.778Z,864.95
2019-02-16T02:51:14.645Z,864.93
2019-02-16T02:52:14.513Z,864.95
2019-02-16T02:53:14.380Z,864.97
2019-02-16T02:54:14.249Z,864.93
2019-02-16T02:55:14.117Z,864.95
2019-02-16T02:56:13.984Z,864.93
2019-02-16T02:57:13.851Z,864.97
2019-02-16T02:58:13.722Z,864.92
2019-02-16T02:59:13.588Z,864.95
2019-02-16T03:00:13.455Z,864.96
2019-02-16T03:01:13.321Z,864.93
2019-02-16T03:02:13.192Z,864.94
2019-02-16T03:03:13.057Z,864.95
2019-02-16T03:04:12.927Z,864.95
2019-02-16T03:05:12.796Z,864.95
2019-02-16T03:06:12.664Z,864.95
2019-02-16T03:07:12.529Z,864.96
2019-02-16T03:08:12.400Z,864.95
2019-02-16T03:09:12.269Z,864.92
2019-02-16T03:10:12.132Z,864.90
2019-02-16T03:11:11.999Z,864.91
2019-02-16T03:12:11.869Z,864.93
2019-02-16T03:13:11.736Z,864.92
2019-02-16T03:14:11.602Z,864.93
2019-02-16T03:15:11.470Z,864.90
2019-02-16T03:16:11.339Z,864.92
2019-02-16T03:17:11.209Z,864.96
2019-02-16T03:18:11.073Z,864.91
2019-02-16T03:19:10.945Z,864.94
2019-02-16T03:20:10.810Z,864.94
2019-02-16T03:21:10.675Z,864.92
2019-02-16T03:22:10.548Z,864.90
2019-02-16T03:23:10.417Z,864.89
2019-02-16T03:24:10.288Z,864.89
2019-02-16T03:25:10.147Z,864.93
2019-02-16T03:26:10.015Z,864.86
2019-02-16T03:27:09.882Z,864.89
2019-02-16T03:28:09.755Z,864.90
2019-02-16T03:29:09.626Z,864.90
2019-02-16T03:30:09.511Z,864.91
2019-02-16T03:31:09.354Z,864.95
2019-02-16T03:32:09.231Z,864.93
2019-02-16T03:33:09.095Z,864.90
2019-02-16T03:34:08.959Z,864.92
2019-02-16T03:35:08.824Z,864.90
2019-02-16T03:36:08.691Z,864.89
2019-02-16T03:37:08.562Z,864.90
2019-02-16T03:38:08.431Z,864.92
2019-02-16T03:39:08.293Z,864.91
2019-02-16T03:40:08.162Z,864.94
2019-02-16T03:41:08.031Z,864.91
2019-02-16T03:42:07.898Z,864.96
2019-02-16T03:43:07.765Z,864.94
2019-02-16T03:44:07.633Z,864.93
2019-02-16T03:45:07.498Z,864.97
2019-02-16T03:46:07.369Z,864.91
2019-02-16T03:47:07.239Z,864.93
2019-02-16T03:48:07.104Z,864.92
2019-02-16T03:49:06.969Z,864.93
2019-02-16T03:50:06.838Z,864.92
2019-02-16T03:51:06.706Z,864.95
2019-02-16T03:52:13.775Z,864.93
2019-02-16T03:53:06.441Z,864.97
2019-02-16T03:54:06.309Z,864.96
2019-02-16T03:55:06.181Z,864.97
2019-02-16T03:56:06.047Z,864.97
2019-02-16T03:57:05.917Z,864.97
2019-02-16T03:58:05.780Z,864.97
2019-02-16T03:59:05.646Z,864.97
2019-02-16T04:00:05.519Z,865.02
2019-02-16T04:01:05.385Z,865.01
2019-02-16T04:02:05.249Z,865.07
2019-02-16T04:03:05.117Z,865.04
2019-02-16T04:04:04.981Z,865.06
2019-02-16T04:05:04.854Z,865.08
2019-02-16T04:06:04.719Z,865.13
2019-02-16T04:07:04.584Z,865.10
2019-02-16T04:08:04.459Z,865.13
2019-02-16T04:09:04.322Z,865.11
2019-02-16T04:10:04.200Z,865.14
2019-02-16T04:11:04.057Z,865.12
2019-02-16T04:12:03.924Z,865.14
2019-02-16T04:13:03.791Z,865.14
2019-02-16T04:14:03.661Z,865.13
2019-02-16T04:15:03.524Z,865.09
2019-02-16T04:16:03.392Z,865.15
2019-02-16T04:17:03.270Z,865.17
2019-02-16T04:18:03.129Z,865.16
2019-02-16T04:19:02.998Z,865.17
2019-02-16T04:20:02.867Z,865.21
2019-02-16T04:21:02.732Z,865.23
2019-02-16T04:22:02.604Z,865.22
2019-02-16T04:23:02.473Z,865.17
2019-02-16T04:24:02.334Z,865.19
2019-02-16T04:25:02.209Z,865.17
2019-02-16T04:26:02.078Z,865.18
2019-02-16T04:27:01.940Z,865.20
2019-02-16T04:28:01.807Z,865.23
2019-02-16T04:29:01.676Z,865.22
2019-02-16T04:30:01.542Z,865.19
2019-02-16T04:31:01.409Z,865.17
2019-02-16T04:32:01.277Z,865.18
2019-02-16T04:33:01.144Z,865.24
2019-02-16T04:34:01.010Z,865.22
2019-02-16T04:35:00.877Z,865.21
2019-02-16T04:36:00.748Z,865.26
2019-02-16T04:37:00.615Z,865.24
2019-02-16T04:38:00.479Z,865.24
2019-02-16T04:39:00.347Z,865.21
2019-02-16T04:40:00.330Z,865.23
2019-02-16T04:41:00.086Z,865.25
2019-02-16T04:41:59.956Z,865.28
2019-02-16T04:42:59.833Z,865.26
2019-02-16T04:43:59.685Z,865.28
2019-02-16T04:44:59.553Z,865.30
2019-02-16T04:45:59.419Z,865.33
2019-02-16T04:46:59.290Z,865.35
2019-02-16T04:47:59.155Z,865.32
2019-02-16T04:48:59.025Z,865.34
2019-02-16T04:49:58.898Z,865.36
2019-02-16T04:50:58.757Z,865.34
2019-02-16T04:51:58.626Z,865.33
2019-02-16T04:52:58.492Z,865.36
2019-02-16T04:53:58.360Z,865.32
2019-02-16T04:54:58.233Z,865.33
2019-02-16T04:55:58.138Z,865.33
2019-02-16T04:56:57.964Z,865.32
2019-02-16T04:57:57.832Z,865.38
2019-02-16T04:58:57.696Z,865.37
2019-02-16T04:59:57.566Z,865.39
2019-02-16T05:00:57.436Z,865.39
2019-02-16T05:01:57.301Z,865.36
2019-02-16T05:02:57.167Z,865.41
2019-02-16T05:03:57.034Z,865.36
2019-02-16T05:04:56.918Z,865.40
2019-02-16T05:05:56.771Z,865.37
2019-02-16T05:06:56.644Z,865.32
2019-02-16T05:07:56.505Z,865.37
2019-02-16T05:08:56.376Z,865.35
2019-02-16T05:09:56.264Z,865.36
2019-02-16T05:10:56.107Z,865.35
2019-02-16T05:11:55.975Z,865.35
2019-02-16T05:12:55.898Z,865.34
2019-02-16T05:13:55.718Z,865.34
2019-02-16T05:14:55.578Z,865.36
2019-02-16T05:15:55.449Z,865.36
2019-02-16T05:16:55.312Z,865.37
2019-02-16T05:17:55.310Z,865.35
2019-02-16T05:18:55.085Z,865.34
2019-02-16T05:19:54.915Z,865.34
2019-02-16T05:20:54.788Z,865.33
2019-02-16T05:21:54.657Z,865.37
2019-02-16T05:22:54.517Z,865.35
2019-02-16T05:23:54.419Z,865.36
2019-02-16T05:24:54.261Z,865.32
2019-02-16T05:25:54.127Z,865.37
2019-02-16T05:26:53.993Z,865.34
2019-02-16T05:27:53.856Z,865.38
2019-02-16T05:28:53.721Z,865.35
2019-02-16T05:29:53.587Z,865.39
2019-02-16T05:30:53.455Z,865.38
2019-02-16T05:31:53.325Z,865.37
2019-02-16T05:32:53.195Z,865.41
2019-02-16T05:33:53.064Z,865.44
2019-02-16T05:34:52.924Z,865.41
2019-02-16T05:35:52.850Z,865.47
2019-02-16T05:36:52.680Z,865.47
2019-02-16T05:37:52.529Z,865.44
2019-02-16T05:38:52.401Z,865.48
2019-02-16T05:39:52.262Z,865.47
2019-02-16T05:40:52.187Z,865.44
2019-02-16T05:41:52.102Z,865.46
2019-02-16T05:42:51.865Z,865.49
2019-02-16T05:43:51.740Z,865.48
2019-02-16T05:44:51.600Z,865.53
2019-02-16T05:45:51.469Z,865.55
2019-02-16T05:46:51.335Z,865.52
2019-02-16T05:47:51.201Z,865.57
2019-02-16T05:48:51.074Z,865.62
2019-02-16T05:49:50.938Z,865.62
2019-02-16T05:50:50.803Z,865.60
2019-02-16T05:51:50.672Z,865.61
2019-02-16T05:52:54.383Z,865.60
2019-02-16T05:53:50.411Z,865.56
2019-02-16T05:54:50.276Z,865.54
2019-02-16T05:55:50.143Z,865.57
2019-02-16T05:56:50.082Z,865.59
2019-02-16T05:57:49.875Z,865.64
2019-02-16T05:58:49.744Z,865.63
2019-02-16T05:59:49.610Z,865.62
2019-02-16T06:00:49.493Z,865.62
2019-02-16T06:01:53.733Z,865.64
2019-02-16T06:02:49.214Z,865.64
2019-02-16T06:03:49.094Z,865.63
2019-02-16T06:04:48.949Z,865.61
2019-02-16T06:05:48.815Z,865.64
2019-02-16T06:06:48.682Z,865.67
2019-02-16T06:07:48.566Z,865.65
2019-02-16T06:08:48.418Z,865.65
2019-02-16T06:09:48.298Z,865.72
2019-02-16T06:10:48.153Z,865.68
2019-02-16T06:11:48.019Z,865.73
2019-02-16T06:12:48.110Z,865.79
2019-02-16T06:13:47.752Z,865.73
2019-02-16T06:14:47.621Z,865.79
2019-02-16T06:15:47.498Z,865.77
2019-02-16T06:16:47.360Z,865.82
2019-02-16T06:17:47.225Z,865.77
2019-02-16T06:18:47.090Z,865.83
2019-02-16T06:19:47.083Z,865.82
2019-02-16T06:20:46.826Z,865.84
2019-02-16T06:21:46.692Z,865.86
2019-02-16T06:22:46.559Z,865.84
2019-02-16T06:23:46.427Z,865.85
2019-02-16T06:24:46.303Z,865.87
2019-02-16T06:25:46.162Z,865.85
2019-02-16T06:26:46.032Z,865.85
2019-02-16T06:27:45.896Z,865.87
2019-02-16T06:28:45.763Z,865.85
2019-02-16T06:29:45.632Z,865.83
2019-02-16T06:30:45.498Z,865.88
2019-02-16T06:31:45.365Z,865.88
2019-02-16T06:32:45.233Z,865.86
2019-02-16T06:33:45.100Z,865.93
2019-02-16T06:34:44.966Z,865.95
2019-02-16T06:35:44.835Z,865.93
2019-02-16T06:36:44.703Z,865.93
2019-02-16T06:37:44.571Z,865.98
2019-02-16T06:38:44.438Z,865.96
2019-02-16T06:39:44.305Z,865.98
2019-02-16T06:40:44.198Z,866.00
2019-02-16T06:41:44.040Z,866.00
2019-02-16T06:42:43.907Z,866.02
2019-02-16T06:43:43.775Z,866.01
2019-02-16T06:44:43.644Z,866.03
2019-02-16T06:45:43.510Z,866.02
2019-02-16T06:46:43.377Z,866.04
2019-02-16T06:47:43.242Z,866.08
2019-02-16T06:48:43.111Z,866.08
2019-02-16T06:49:42.978Z,866.08
2019-02-16T06:50:42.850Z,866.08
2019-02-16T06:51:42.714Z,866.06
2019-02-16T06:52:42.581Z,866.07
2019-02-16T06:53:42.447Z,866.06
2019-02-16T06:54:42.317Z,866.07
2019-02-16T06:55:42.183Z,866.08
2019-02-16T06:56:42.054Z,866.12
2019-02-16T06:57:41.918Z,866.07
2019-02-16T06:58:41.824Z,866.06
2019-02-16T06:59:41.652Z,866.08
2019-02-16T07:00:41.519Z,866.07
2019-02-16T07:01:41.385Z,866.07
2019-02-16T07:02:41.251Z,866.08
2019-02-16T07:03:41.120Z,866.05
2019-02-16T07:04:40.988Z,866.06
2019-02-16T07:05:40.855Z,866.06
2019-02-16T07:06:40.747Z,866.09
2019-02-16T07:07:40.588Z,866.05
2019-02-16T07:08:40.459Z,866.14
2019-02-16T07:09:40.328Z,866.13
2019-02-16T07:10:40.199Z,866.14
2019-02-16T07:11:40.062Z,866.14
2019-02-16T07:12:39.927Z,866.12
2019-02-16T07:13:39.794Z,866.14
2019-02-16T07:14:39.663Z,866.17
2019-02-16T07:15:39.550Z,866.15
2019-02-16T07:16:39.396Z,866.15
2019-02-16T07:17:39.264Z,866.19
2019-02-16T07:18:39.129Z,866.18
2019-02-16T07:19:38.997Z,866.19
2019-02-16T07:20:38.868Z,866.21
2019-02-16T07:21:38.738Z,866.17
2019-02-16T07:22:38.601Z,866.20
2019-02-16T07:23:38.468Z,866.20
2019-02-16T07:24:38.340Z,866.14
2019-02-16T07:25:38.277Z,866.21
2019-02-16T07:26:38.069Z,866.20
2019-02-16T07:27:37.939Z,866.23
2019-02-16T07:28:37.813Z,866.21
2019-02-16T07:29:37.671Z,866.22
2019-02-16T07:30:37.539Z,866.27
2019-02-16T07:31:37.406Z,866.26
2019-02-16T07:32:37.275Z,866.24
2019-02-16T07:33:37.143Z,866.25
2019-02-16T07:34:37.018Z,866.27
2019-02-16T07:35:36.885Z,866.27
2019-02-16T07:36:36.748Z,866.27
2019-02-16T07:37:36.622Z,866.25
2019-02-16T07:38:36.482Z,866.26
2019-02-16T07:39:36.347Z,866.27
2019-02-16T07:40:36.241Z,866.26
2019-02-16T07:41:36.154Z,866.24
2019-02-16T07:42:35.950Z,866.24
2019-02-16T07:43:35.817Z,866.21
2019-02-16T07:44:35.687Z,866.25
2019-02-16T07:45:35.553Z,866.24
2019-02-16T07:46:35.418Z,866.23
2019-02-16T07:47:35.287Z,866.21
2019-02-16T07:48:35.162Z,866.23
2019-02-16T07:49:35.052Z,866.25
2019-02-16T07:50:34.891Z,866.24
2019-02-16T07:51:34.761Z,866.23
2019-02-16T07:52:34.631Z,866.27
2019-02-16T07:53:34.495Z,866.25
2019-02-16T07:54:34.368Z,866.25
2019-02-16T07:55:34.227Z,866.19
2019-02-16T07:56:34.096Z,866.23
2019-02-16T07:57:33.963Z,866.21
2019-02-16T07:58:33.830Z,866.20
2019-02-16T07:59:33.698Z,866.19
2019-02-16T08:00:33.567Z,866.17
2019-02-16T08:01:33.437Z,866.19
2019-02-16T08:02:33.305Z,866.20
2019-02-16T08:03:33.169Z,866.21
2019-02-16T08:04:33.038Z,866.12
2019-02-16T08:05:32.908Z,866.13
2019-02-16T08:06:32.773Z,866.15
2019-02-16T08:07:32.641Z,866.12
2019-02-16T08:08:32.507Z,866.11
2019-02-16T08:09:32.378Z,866.11
2019-02-16T08:10:32.264Z,866.10
2019-02-16T08:11:32.113Z,866.18
2019-02-16T08:12:31.982Z,866.16
2019-02-16T08:13:31.853Z,866.11
2019-02-16T08:14:31.725Z,866.12
2019-02-16T08:15:31.587Z,866.14
2019-02-16T08:16:31.456Z,866.12
2019-02-16T08:17:31.330Z,866.16
2019-02-16T08:18:31.196Z,866.13
2019-02-16T08:19:31.062Z,866.16
2019-02-16T08:20:30.937Z,866.10
2019-02-16T08:21:30.803Z,866.13
2019-02-16T08:22:30.669Z,866.10
2019-02-16T08:23:30.540Z,866.13
2019-02-16T08:24:30.419Z,866.06
2019-02-16T08:25:30.285Z,866.08
2019-02-16T08:26:30.154Z,866.10
2019-02-16T08:27:30.027Z,866.10
2019-02-16T08:28:29.897Z,866.08
2019-02-16T08:29:29.769Z,866.08
2019-02-16T08:30:29.637Z,866.04
2019-02-16T08:31:29.508Z,866.01
2019-02-16T08:32:29.379Z,865.99
2019-02-16T08:33:29.251Z,866.05
2019-02-16T08:34:29.120Z,865.96
2019-02-16T08:35:28.993Z,865.95
2019-02-16T08:36:28.866Z,865.96
2019-02-16T08:37:28.740Z,865.99
2019-02-16T08:38:28.610Z,865.99
2019-02-16T08:39:28.488Z,865.97
2019-02-16T08:40:28.359Z,866.01
2019-02-16T08:41:28.235Z,866.02
2019-02-16T08:42:28.104Z,866.02
2019-02-16T08:43:27.983Z,866.03
2019-02-16T08:44:27.854Z,866.02
2019-02-16T08:45:27.726Z,866.01
2019-02-16T08:46:27.598Z,866.00
2019-02-16T08:47:27.472Z,866.04
2019-02-16T08:48:27.348Z,866.02
2019-02-16T08:49:27.220Z,866.01
2019-02-16T08:50:27.099Z,866.00
2019-02-16T08:51:26.970Z,866.00
2019-02-16T08:52:26.841Z,865.98
2019-02-16T08:53:26.716Z,865.99
2019-02-16T08:54:26.593Z,866.01
2019-02-16T08:55:26.466Z,866.06
2019-02-16T08:56:26.346Z,866.05
2019-02-16T08:57:26.222Z,866.07
2019-02-16T08:58:26.104Z,866.04
2019-02-16T08:59:25.967Z,866.05
2019-02-16T09:00:25.842Z,866.07
2019-02-16T09:01:27.479Z,866.03
2019-02-16T09:02:25.587Z,866.04
2019-02-16T09:03:25.464Z,866.03
2019-02-16T09:04:25.340Z,866.02
2019-02-16T09:05:25.214Z,866.03
2019-02-16T09:06:25.091Z,866.02
2019-02-16T09:07:24.965Z,866.01
2019-02-16T09:08:24.856Z,865.99
2019-02-16T09:09:24.718Z,865.98
2019-02-16T09:10:24.593Z,865.99
2019-02-16T09:11:24.468Z,866.01
2019-02-16T09:12:24.347Z,866.01
2019-02-16T09:13:24.223Z,866.00
2019-02-16T09:14:24.099Z,866.03
2019-02-16T09:15:23.977Z,866.05
2019-02-16T09:16:23.853Z,866.01
2019-02-16T09:17:23.730Z,866.04
2019-02-16T09:18:23.608Z,866.00
2019-02-16T09:19:23.488Z,866.05
2019-02-16T09:20:23.364Z,866.05
2019-02-16T09:21:23.240Z,866.06
2019-02-16T09:22:23.116Z,866.03
2019-02-16T09:23:22.993Z,866.04
2019-02-16T09:24:22.870Z,866.05
2019-02-16T09:25:22.747Z,866.06
2019-02-16T09:26:22.628Z,866.04
2019-02-16T09:27:22.502Z,866.03
2019-02-16T09:28:22.379Z,866.05
2019-02-16T09:29:22.253Z,866.05
2019-02-16T09:30:22.130Z,866.03
2019-02-16T09:31:22.007Z,866.06
2019-02-16T09:32:21.884Z,866.02
2019-02-16T09:33:21.764Z,866.05
2019-02-16T09:34:21.638Z,866.05
2019-02-16T09:35:21.518Z,866.07
2019-02-16T09:36:21.391Z,866.01
2019-02-16T09:37:21.271Z,866.04
2019-02-16T09:38:21.144Z,866.00
2019-02-16T09:39:21.023Z,866.01
2019-02-16T09:40:20.898Z,866.00
2019-02-16T09:41:20.774Z,866.01
2019-02-16T09:42:20.650Z,866.05
2019-02-16T09:43:20.528Z,866.02
2019-02-16T09:44:20.410Z,866.06
2019-02-16T09:45:20.281Z,866.07
2019-02-16T09:46:20.164Z,866.05
2019-02-16T09:47:20.034Z,866.07
2019-02-16T09:48:19.912Z,866.07
2019-02-16T09:49:19.790Z,866.06
2019-02-16T09:50:19.667Z,866.04
2019-02-16T09:51:19.542Z,866.09
2019-02-16T09:52:19.458Z,866.09
2019-02-16T09:53:19.300Z,866.10
2019-02-16T09:54:19.173Z,866.05
2019-02-16T09:55:19.050Z,866.06
2019-02-16T09:56:18.929Z,866.07
2019-02-16T09:57:18.804Z,866.06
2019-02-16T09:58:18.681Z,866.07
2019-02-16T09:59:18.557Z,866.11
2019-02-16T10:00:18.433Z,866.09
2019-02-16T10:01:18.342Z,866.09
2019-02-16T10:02:18.185Z,866.12
2019-02-16T10:03:18.061Z,866.13
2019-02-16T10:04:17.941Z,866.12
2019-02-16T10:05:17.817Z,866.19
2019-02-16T10:06:17.693Z,866.18
2019-02-16T10:07:17.568Z,866.20
2019-02-16T10:08:17.444Z,866.17
2019-02-16T10:09:17.329Z,866.12
2019-02-16T10:10:17.197Z,866.12
2019-02-16T10:11:17.122Z,866.12
2019-02-16T10:12:16.953Z,866.14
2019-02-16T10:13:16.828Z,866.12
2019-02-16T10:14:16.705Z,866.15
2019-02-16T10:15:16.585Z,866.17
2019-02-16T10:16:16.460Z,866.15
2019-02-16T10:17:16.336Z,866.19
2019-02-16T10:18:16.222Z,866.14
2019-02-16T10:19:16.090Z,866.16
2019-02-16T10:20:15.967Z,866.18
2019-02-16T10:21:15.846Z,866.18
2019-02-16T10:22:15.719Z,866.18
2019-02-16T10:23:15.597Z,866.19
2019-02-16T10:24:17.920Z,866.20
2019-02-16T10:25:15.352Z,866.18
2019-02-16T10:26:15.226Z,866.20
2019-02-16T10:27:15.104Z,866.19
2019-02-16T10:28:14.981Z,866.17
2019-02-16T10:29:14.864Z,866.19
2019-02-16T10:30:14.736Z,866.18
2019-02-16T10:31:14.618Z,866.18
2019-02-16T10:32:14.496Z,866.16
2019-02-16T10:33:14.369Z,866.18
2019-02-16T10:34:14.247Z,866.15
2019-02-16T10:35:14.124Z,866.16
2019-02-16T10:36:14.002Z,866.14
2019-02-16T10:37:13.882Z,866.14
2019-02-16T10:38:13.756Z,866.14
2019-02-16T10:39:13.639Z,866.14
2019-02-16T10:40:13.513Z,866.12
2019-02-16T10:41:13.397Z,866.13
2019-02-16T10:42:13.269Z,866.12
2019-02-16T10:43:13.144Z,866.13
2019-02-16T10:44:13.030Z,866.14
2019-02-16T10:45:12.902Z,866.12
2019-02-16T10:46:12.778Z,866.11
2019-02-16T10:47:12.656Z,866.09
2019-02-16T10:48:12.537Z,866.09
2019-02-16T10:49:12.414Z,866.05
2019-02-16T10:50:12.290Z,866.06
2019-02-16T10:51:12.173Z,866.07
2019-02-16T10:52:12.055Z,866.07
2019-02-16T10:53:11.931Z,866.07
2019-02-16T10:54:11.805Z,866.07
2019-02-16T10:55:11.685Z,866.05
2019-02-16T10:56:11.568Z,866.06
2019-02-16T10:57:11.440Z,866.03
2019-02-16T10:58:11.320Z,866.07
2019-02-16T10:59:11.205Z,866.06
2019-02-16T11:00:11.076Z,866.07
2019-02-16T11:01:10.955Z,866.04
2019-02-16T11:02:10.840Z,866.05
2019-02-16T11:03:10.712Z,866.05
2019-02-16T11:04:10.592Z,866.02
2019-02-16T11:05:10.476Z,866.02
2019-02-16T11:06:10.351Z,866.00
2019-02-16T11:07:10.229Z,866.02
2019-02-16T11:08:10.114Z,865.96
2019-02-16T11:09:09.987Z,865.99
2019-02-16T11:10:09.864Z,865.93
2019-02-16T11:11:09.745Z,866.00
2019-02-16T11:12:09.623Z,865.95
2019-02-16T11:13:09.502Z,865.97
2019-02-16T11:14:09.422Z,865.96
2019-02-16T11:15:09.268Z,865.92
2019-02-16T11:16:09.139Z,865.94
2019-02-16T11:17:09.017Z,865.95
2019-02-16T11:18:08.899Z,865.90
2019-02-16T11:19:08.772Z,865.87
2019-02-16T11:20:08.657Z,865.91
2019-02-16T11:21:08.533Z,865.88
2019-02-16T11:22:08.408Z,865.86
2019-02-16T11:23:08.293Z,865.88
2019-02-16T11:24:08.167Z,865.86
2019-02-16T11:25:08.047Z,865.92
2019-02-16T11:26:07.928Z,865.87
2019-02-16T11:27:07.806Z,865.85
2019-02-16T11:28:07.684Z,865.86
2019-02-16T11:29:07.563Z,865.88
2019-02-16T11:30:07.440Z,865.84
2019-02-16T11:31:07.317Z,865.87
2019-02-16T11:32:07.199Z,865.83
2019-02-16T11:33:07.076Z,865.86
2019-02-16T11:34:07.032Z,865.84
2019-02-16T11:35:06.832Z,865.83
2019-02-16T11:36:06.713Z,865.88
2019-02-16T11:37:06.628Z,865.79
2019-02-16T11:38:06.466Z,865.80
2019-02-16T11:39:06.347Z,865.79
2019-02-16T11:40:06.230Z,865.80
2019-02-16T11:41:06.104Z,865.78
2019-02-16T11:42:05.983Z,865.79
2019-02-16T11:43:05.862Z,865.78
2019-02-16T11:44:05.740Z,865.74
2019-02-16T11:45:05.620Z,865.77
2019-02-16T11:46:05.506Z,865.78
2019-02-16T11:47:05.380Z,865.75
2019-02-16T11:48:05.256Z,865.76
2019-02-16T11:49:05.171Z,865.77
2019-02-16T11:50:05.016Z,865.80
2019-02-16T11:51:04.895Z,865.75
2019-02-16T11:52:04.774Z,865.76
2019-02-16T11:53:04.653Z,865.75
2019-02-16T11:54:04.540Z,865.78
2019-02-16T11:55:04.408Z,865.73
2019-02-16T11:56:04.292Z,865.77
2019-02-16T11:57:04.179Z,865.74
2019-02-16T11:58:04.049Z,865.71
2019-02-16T11:59:03.925Z,865.71
2019-02-16T12:00:03.818Z,865.70
2019-02-16T12:01:03.689Z,865.72
2019-02-16T12:02:03.572Z,865.72
2019-02-16T12:03:03.484Z,865.70
2019-02-16T12:04:03.322Z,865.67
2019-02-16T12:05:03.252Z,865.66
2019-02-16T12:06:03.084Z,865.63
2019-02-16T12:07:02.984Z,865.66
2019-02-16T12:08:02.848Z,865.65
2019-02-16T12:09:02.720Z,865.66
2019-02-16T12:10:02.601Z,865.60
2019-02-16T12:11:02.499Z,865.61
2019-02-16T12:12:02.380Z,865.60
2019-02-16T12:13:02.237Z,865.57
2019-02-16T12:14:02.112Z,865.55
2019-02-16T12:15:01.999Z,865.55
2019-02-16T12:16:01.872Z,865.56
2019-02-16T12:17:01.753Z,865.52
2019-02-16T12:18:01.628Z,865.50
2019-02-16T12:19:01.506Z,865.48
2019-02-16T12:20:01.387Z,865.45
2019-02-16T12:21:01.284Z,865.46
2019-02-16T12:22:01.148Z,865.46
2019-02-16T12:23:01.043Z,865.48
2019-02-16T12:24:00.901Z,865.45
2019-02-16T12:25:05.769Z,865.47
2019-02-16T12:26:00.658Z,865.47
2019-02-16T12:27:00.535Z,865.46